Jou Jou — DA3423 — position and weather

sailwx.info

Track history (hours):
 
Tides and Currents Weather Stations Pressure Air Temp Water Temp Dewpoint Dewpoint Depression Visibility Wind Speed Wind Dir Waves Ship Positions

Jou Jou

Last reported at 2016-Jun-08 09:20 UTC. Time now 2016-Jun-30 08:43 UTC.
Position N 54°29' E 012°50'.
Warning: this ship's position is 21 days out of date.

Length 12 m.

Type: Sailing vessel. MMSI: 211187970.

Date/timePositionNaut miles runAvg speedWind from/ knotsBaromVisibWave heightAir tempDewpointWater temp
2016-Jun-08 09:20N 54°29' E 012°50'6 7.2
2016-Jun-08 08:33N 54°30' E 012°40'6 6.4
2016-Jun-08 07:33N 54°29' E 012°29'7 5.8
2016-Jun-08 06:22N 54°24' E 012°22'8 7.3
2016-Jun-08 05:18N 54°18' E 012°14'5 6.0
2016-Jun-08 04:27N 54°14' E 012°08'4 0.2
2016-Jun-07 08:26N 54°11' E 012°05'1 0.0
2016-Jun-06 07:29N 54°12' E 012°04'5 5.6
2016-Jun-06 06:33N 54°11' E 011°55'5 4.1
2016-Jun-06 05:25N 54°10' E 011°47'1 0.0
2016-Jun-05 12:31N 54°09' E 011°46'4 3.8
2016-Jun-05 11:32N 54°12' E 011°41'6 6.5
2016-Jun-05 10:33N 54°16' E 011°33'7 6.6
2016-Jun-05 09:33N 54°19' E 011°23'6 6.3
2016-Jun-05 08:33N 54°23' E 011°15'2 0.1
2016-Jun-03 10:33N 54°25' E 011°12'  
Track history (hours):
 
Tides and Currents Weather Stations Pressure Air Temp Water Temp Dewpoint Dewpoint Depression Visibility Wind Speed Wind Dir Waves Ship Positions

Jou Jou

Last reported at 2016-Jun-08 09:20 UTC. Time now 2016-Jun-30 08:43 UTC.
Position N 54°29' E 012°50'.
Warning: this ship's position is 21 days out of date.

Length 12 m.

Type: Sailing vessel. MMSI: 211187970.

Date/timePositionNaut miles runAvg speedWind from/ knotsBaromVisibWave heightAir tempDewpointWater temp
2016-Jun-08 09:20N 54°29' E 012°50'6 7.2
2016-Jun-08 08:33N 54°30' E 012°40'6 6.4
2016-Jun-08 07:33N 54°29' E 012°29'7 5.8
2016-Jun-08 06:22N 54°24' E 012°22'8 7.3
2016-Jun-08 05:18N 54°18' E 012°14'5 6.0
2016-Jun-08 04:27N 54°14' E 012°08'4 0.2
2016-Jun-07 08:26N 54°11' E 012°05'1 0.0
2016-Jun-06 07:29N 54°12' E 012°04'5 5.6
2016-Jun-06 06:33N 54°11' E 011°55'5 4.1
2016-Jun-06 05:25N 54°10' E 011°47'1 0.0
2016-Jun-05 12:31N 54°09' E 011°46'4 3.8
2016-Jun-05 11:32N 54°12' E 011°41'6 6.5
2016-Jun-05 10:33N 54°16' E 011°33'7 6.6
2016-Jun-05 09:33N 54°19' E 011°23'6 6.3
2016-Jun-05 08:33N 54°23' E 011°15'2 0.1
2016-Jun-03 10:33N 54°25' E 011°12'  

Dump ship's entire track history